Time;durP1;ratioP1;P1;durP2;ratioP2;P2;SDS_P1;SDS_P2;PMS_P1;PMS_P2;Temp;Humidity;BMP_temperature;BMP_pressure;BME280_temperature;BME280_humidity;BME280_pressure;Samples;Min_cycle;Max_cycle;Signal;HPM_P1;HPM_P2
2023/04/27 00:01:33;;;;;;;6.57;4.33;;;4.90;17.00;;;;;;5012000;28;20460;-81
2023/04/27 00:04:00;;;;;;;6.43;4.50;;;4.90;20.40;;;;;;5011367;28;20482;-81
2023/04/27 00:06:27;;;;;;;6.23;3.83;;;4.80;38.30;;;;;;5013868;28;20511;-82
2023/04/27 00:08:54;;;;;;;7.90;4.40;;;4.80;42.30;;;;;;5017341;28;20811;-80
2023/04/27 00:11:22;;;;;;;6.27;4.27;;;4.70;48.40;;;;;;5015488;28;20461;-81
2023/04/27 00:13:49;;;;;;;6.47;4.10;;;4.60;62.10;;;;;;5016079;28;20869;-79
2023/04/27 00:16:15;;;;;;;5.77;3.80;;;4.60;84.40;;;;;;5017734;28;20475;-80
2023/04/27 00:18:42;;;;;;;7.57;4.23;;;4.60;98.20;;;;;;5016043;28;20468;-81
2023/04/27 00:21:09;;;;;;;6.20;4.13;;;4.50;96.80;;;;;;5015200;28;20974;-80
2023/04/27 00:23:36;;;;;;;6.17;4.20;;;4.50;99.90;;;;;;5008483;28;20451;-81
2023/04/27 00:26:03;;;;;;;9.53;4.53;;;4.50;99.90;;;;;;5016201;28;20515;-80
2023/04/27 00:28:31;;;;;;;6.03;3.93;;;4.50;99.90;;;;;;5015154;28;20546;-81
2023/04/27 00:30:58;;;;;;;8.87;4.43;;;4.40;99.90;;;;;;5015221;28;20451;-81
2023/04/27 00:33:25;;;;;;;11.10;4.87;;;4.40;99.90;;;;;;5015857;28;20810;-79
2023/04/27 00:35:51;;;;;;;7.13;4.23;;;4.40;99.90;;;;;;5016491;28;20474;-80
2023/04/27 00:38:18;;;;;;;7.27;3.60;;;4.40;99.90;;;;;;5015631;28;20457;-81
2023/04/27 00:40:45;;;;;;;6.87;4.77;;;4.40;99.90;;;;;;5014834;28;20460;-81
2023/04/27 00:43:12;;;;;;;8.03;4.53;;;4.30;99.90;;;;;;5015432;28;20544;-81
2023/04/27 00:45:42;;;;;;;4.77;3.70;;;4.20;99.90;;;;;;5016075;28;20473;-80
2023/04/27 00:48:10;;;;;;;7.27;4.60;;;4.20;99.90;;;;;;5015462;28;20550;-81
2023/04/27 00:50:37;;;;;;;7.03;4.53;;;4.20;99.90;;;;;;5014971;28;20462;-81
2023/04/27 00:53:05;;;;;;;6.23;3.83;;;4.20;99.90;;;;;;5015215;28;20434;-80
2023/04/27 00:55:32;;;;;;;6.77;4.63;;;4.10;99.90;;;;;;5015502;28;20525;-81
2023/04/27 00:57:59;;;;;;;6.83;4.53;;;4.10;99.90;;;;;;5015456;28;20464;-81
2023/04/27 01:00:26;;;;;;;6.63;4.20;;;4.10;99.90;;;;;;5015182;28;20452;-79
2023/04/27 01:02:55;;;;;;;9.80;4.47;;;4.00;99.90;;;;;;5015206;28;20476;-80
2023/04/27 01:05:24;;;;;;;8.20;4.00;;;4.00;99.90;;;;;;5015042;28;20467;-81
2023/04/27 01:07:51;;;;;;;5.73;4.30;;;4.00;99.90;;;;;;5015296;28;20460;-80
2023/04/27 01:10:17;;;;;;;9.67;4.97;;;4.00;99.90;;;;;;5022315;28;20982;-83
2023/04/27 01:12:44;;;;;;;8.97;4.60;;;3.90;99.90;;;;;;5019020;28;20452;-82
2023/04/27 01:15:11;;;;;;;9.40;4.40;;;3.90;99.90;;;;;;5018622;28;20528;-82
2023/04/27 01:17:38;;;;;;;8.13;4.87;;;3.80;99.90;;;;;;5018591;28;20454;-80
2023/04/27 01:20:10;;;;;;;7.23;5.17;;;3.80;99.90;;;;;;5019013;28;20532;-81
2023/04/27 01:22:37;;;;;;;6.03;4.23;;;3.80;99.90;;;;;;5017234;28;20999;-82
2023/04/27 01:25:06;;;;;;;9.17;4.67;;;3.80;99.90;;;;;;5017334;28;20446;-81
2023/04/27 01:27:34;;;;;;;7.37;4.63;;;3.80;99.90;;;;;;5017466;28;20428;-82
2023/04/27 01:30:02;;;;;;;8.57;5.37;;;3.80;99.90;;;;;;5017326;28;20424;-80
2023/04/27 01:32:29;;;;;;;10.77;4.30;;;3.70;99.90;;;;;;5017477;28;20943;-82
2023/04/27 01:34:55;;;;;;;10.00;5.33;;;3.70;99.90;;;;;;5016848;28;20501;-81
2023/04/27 01:37:22;;;;;;;6.67;4.40;;;3.70;99.90;;;;;;5018807;28;20579;-81
2023/04/27 01:39:49;;;;;;;6.67;3.93;;;3.70;99.90;;;;;;5019153;28;21058;-82
2023/04/27 01:42:17;;;;;;;8.53;4.73;;;3.60;99.90;;;;;;5017882;28;20453;-81
2023/04/27 01:44:44;;;;;;;7.03;5.57;;;3.60;99.90;;;;;;5013791;28;20847;-81
2023/04/27 01:47:11;;;;;;;10.80;6.13;;;3.60;99.90;;;;;;5018256;28;20477;-81
2023/04/27 01:49:37;;;;;;;7.73;5.00;;;3.60;99.90;;;;;;5016053;28;20458;-81
2023/04/27 01:52:04;;;;;;;9.67;5.40;;;3.60;99.90;;;;;;5015943;28;20531;-81
2023/04/27 01:54:31;;;;;;;10.47;5.47;;;3.50;99.90;;;;;;5014826;28;20483;-83
2023/04/27 01:56:58;;;;;;;10.73;5.20;;;3.50;99.90;;;;;;5016510;28;20478;-82
2023/04/27 01:59:26;;;;;;;10.33;5.27;;;3.40;99.90;;;;;;5014026;28;20453;-80
2023/04/27 02:01:53;;;;;;;10.17;5.83;;;3.50;99.90;;;;;;5014991;28;20450;-81
2023/04/27 02:04:20;;;;;;;12.53;5.00;;;3.40;99.90;;;;;;5015303;28;20955;-83
2023/04/27 02:06:47;;;;;;;11.03;5.17;;;3.40;99.90;;;;;;5014640;28;20582;-82
2023/04/27 02:09:14;;;;;;;11.50;6.00;;;3.40;99.90;;;;;;5015507;28;20979;-82
2023/04/27 02:11:41;;;;;;;8.03;4.83;;;3.40;99.90;;;;;;5012872;28;20456;-81
2023/04/27 02:14:07;;;;;;;9.50;4.33;;;3.30;99.90;;;;;;5013860;28;20477;-81
2023/04/27 02:16:36;;;;;;;10.33;4.87;;;3.30;99.90;;;;;;5014142;28;20848;-82
2023/04/27 02:19:03;;;;;;;8.40;5.30;;;3.30;99.90;;;;;;5013625;28;20461;-82
2023/04/27 02:21:29;;;;;;;8.93;5.53;;;3.30;99.90;;;;;;5013208;28;20463;-81
2023/04/27 02:23:56;;;;;;;9.93;5.90;;;3.30;99.90;;;;;;5013237;28;20459;-83
2023/04/27 02:26:28;;;;;;;7.67;5.00;;;3.30;99.90;;;;;;5013441;28;20471;-81
2023/04/27 02:28:55;;;;;;;8.53;4.70;;;3.30;99.90;;;;;;5013083;28;20905;-81
2023/04/27 02:31:22;;;;;;;6.40;4.77;;;3.30;99.90;;;;;;5012124;28;20433;-80
2023/04/27 02:33:50;;;;;;;7.00;4.70;;;3.30;99.90;;;;;;5013693;28;20482;-80
2023/04/27 02:36:17;;;;;;;13.87;5.53;;;3.30;99.90;;;;;;5013600;28;21040;-81
2023/04/27 02:38:44;;;;;;;7.40;5.50;;;3.20;99.90;;;;;;5013666;28;20430;-81
2023/04/27 02:41:10;;;;;;;7.33;4.60;;;3.20;99.90;;;;;;5013200;28;20453;-82
2023/04/27 02:43:37;;;;;;;8.83;4.90;;;3.20;99.90;;;;;;5013684;28;20961;-82
2023/04/27 02:46:04;;;;;;;7.40;5.37;;;3.20;99.90;;;;;;5013204;28;20448;-81
2023/04/27 02:48:31;;;;;;;12.10;5.47;;;3.20;99.90;;;;;;5013144;28;20429;-81
2023/04/27 02:51:02;;;;;;;7.10;5.43;;;3.20;99.90;;;;;;5013181;28;20474;-81
2023/04/27 02:53:29;;;;;;;7.80;5.27;;;3.30;99.90;;;;;;5013180;28;20462;-81
2023/04/27 02:55:57;;;;;;;6.40;4.30;;;3.20;99.90;;;;;;5012554;28;20842;-81
2023/04/27 02:58:24;;;;;;;12.37;5.73;;;3.20;99.90;;;;;;5013315;28;20459;-81
2023/04/27 03:00:54;;;;;;;8.43;5.30;;;3.30;99.90;;;;;;5019385;28;20529;-82
2023/04/27 03:03:21;;;;;;;11.13;5.00;;;3.20;99.90;;;;;;5016379;28;20477;-83
2023/04/27 03:05:48;;;;;;;7.73;5.30;;;3.30;99.90;;;;;;5014544;28;20450;-81
2023/04/27 03:08:16;;;;;;;8.93;5.83;;;3.30;99.90;;;;;;5014934;28;20453;-82
2023/04/27 03:10:43;;;;;;;7.57;4.83;;;3.20;99.90;;;;;;5014270;28;20485;-82
2023/04/27 03:13:10;;;;;;;7.50;4.60;;;3.30;99.90;;;;;;5014188;28;20519;-82
2023/04/27 03:15:36;;;;;;;8.50;5.00;;;3.30;99.90;;;;;;5014841;28;20473;-80
2023/04/27 03:18:04;;;;;;;9.90;5.17;;;3.30;99.90;;;;;;5013992;28;20978;-82
2023/04/27 03:20:31;;;;;;;7.83;5.30;;;3.30;99.90;;;;;;5014568;28;20465;-80
2023/04/27 03:22:57;;;;;;;8.97;5.20;;;3.30;99.90;;;;;;5013838;28;20460;-81
2023/04/27 03:25:26;;;;;;;11.80;5.00;;;3.30;99.90;;;;;;5014262;28;20493;-81
2023/04/27 03:27:52;;;;;;;13.40;5.87;;;3.30;99.90;;;;;;5013907;28;20442;-81
2023/04/27 03:30:19;;;;;;;8.30;4.67;;;3.30;99.90;;;;;;5014705;28;20508;-83
2023/04/27 03:32:46;;;;;;;8.67;5.57;;;3.30;99.90;;;;;;5013508;28;20460;-81
2023/04/27 03:35:13;;;;;;;8.17;4.27;;;3.20;99.90;;;;;;5012447;28;20460;-79
2023/04/27 03:37:40;;;;;;;8.00;5.37;;;3.20;99.90;;;;;;5012300;28;20454;-81
2023/04/27 03:40:08;;;;;;;9.33;4.87;;;3.20;99.90;;;;;;5012642;28;20427;-81
2023/04/27 03:42:36;;;;;;;8.87;5.33;;;3.20;99.90;;;;;;5011731;28;20452;-81
2023/04/27 03:45:04;;;;;;;12.33;5.23;;;3.20;99.90;;;;;;5012216;28;20798;-81
2023/04/27 03:47:31;;;;;;;7.60;5.73;;;3.30;99.90;;;;;;5011269;28;20459;-81
2023/04/27 03:49:58;;;;;;;7.77;5.40;;;3.30;99.90;;;;;;5012303;28;20440;-81
2023/04/27 03:52:25;;;;;;;9.93;5.80;;;3.30;99.90;;;;;;5012223;28;20463;-79
2023/04/27 03:54:52;;;;;;;10.87;5.70;;;3.30;99.90;;;;;;5014198;28;20479;-80
2023/04/27 03:57:18;;;;;;;8.77;5.23;;;3.30;99.90;;;;;;5012723;28;20532;-81
2023/04/27 03:59:47;;;;;;;8.80;5.73;;;3.30;99.90;;;;;;5014791;28;20497;-83
2023/04/27 04:02:13;;;;;;;14.30;6.50;;;3.40;99.90;;;;;;5014374;28;20428;-78
2023/04/27 04:04:40;;;;;;;9.17;5.87;;;3.40;99.90;;;;;;5012782;28;20443;-81
2023/04/27 04:07:07;;;;;;;9.77;6.57;;;3.40;99.90;;;;;;5013898;28;20522;-80
2023/04/27 04:09:34;;;;;;;13.53;6.40;;;3.40;99.90;;;;;;5012384;28;20846;-79
2023/04/27 04:12:02;;;;;;;10.90;6.27;;;3.30;99.90;;;;;;5011909;28;20963;-80
2023/04/27 04:14:29;;;;;;;10.90;6.30;;;3.30;99.90;;;;;;5011833;28;21010;-82
2023/04/27 04:16:57;;;;;;;12.23;6.83;;;3.30;99.90;;;;;;5012365;28;20478;-80
2023/04/27 04:19:24;;;;;;;9.73;5.20;;;3.40;99.90;;;;;;5010665;28;20460;-81
2023/04/27 04:21:51;;;;;;;10.20;6.73;;;3.40;99.90;;;;;;5011516;28;20468;-80
2023/04/27 04:24:18;;;;;;;11.57;6.60;;;3.40;99.90;;;;;;5012326;28;20425;-81
2023/04/27 04:26:46;;;;;;;14.63;6.87;;;3.40;99.90;;;;;;5010531;28;20558;-80
2023/04/27 04:29:12;;;;;;;13.63;6.10;;;3.50;99.90;;;;;;5012610;28;20573;-80
2023/04/27 04:31:39;;;;;;;9.90;5.33;;;3.40;99.90;;;;;;5012318;28;20453;-78
2023/04/27 04:34:08;;;;;;;9.73;5.90;;;3.50;99.90;;;;;;5012350;28;20428;-80
2023/04/27 04:36:36;;;;;;;8.80;6.43;;;3.50;99.90;;;;;;5011826;28;20478;-77
2023/04/27 04:39:04;;;;;;;10.40;6.07;;;3.50;99.90;;;;;;5012479;28;20505;-78
2023/04/27 04:41:31;;;;;;;9.97;6.10;;;3.50;99.90;;;;;;5012314;28;20435;-79
2023/04/27 04:43:58;;;;;;;9.70;5.97;;;3.50;99.90;;;;;;5013042;28;20523;-79
2023/04/27 04:46:25;;;;;;;14.97;7.20;;;3.50;99.90;;;;;;5015420;28;20452;-79
2023/04/27 04:48:52;;;;;;;16.30;7.43;;;3.60;99.90;;;;;;5016464;28;20435;-79
2023/04/27 04:51:21;;;;;;;12.07;7.17;;;3.60;99.90;;;;;;5015801;28;20449;-79
2023/04/27 04:53:47;;;;;;;11.90;7.70;;;3.70;99.90;;;;;;5019547;28;20453;-79
2023/04/27 04:56:15;;;;;;;10.40;6.43;;;3.70;99.90;;;;;;5015970;28;20493;-78
2023/04/27 04:58:42;;;;;;;12.17;7.13;;;3.70;99.90;;;;;;5015842;28;20441;-79
2023/04/27 05:01:09;;;;;;;13.07;6.93;;;3.80;99.90;;;;;;5015503;28;20428;-79
2023/04/27 05:03:36;;;;;;;10.30;6.13;;;3.90;99.90;;;;;;5016070;28;20430;-78
2023/04/27 05:06:03;;;;;;;11.10;6.93;;;3.90;99.90;;;;;;5014756;28;20482;-78
2023/04/27 05:08:31;;;;;;;10.97;6.93;;;4.00;99.90;;;;;;5015434;28;20441;-80
2023/04/27 05:10:58;;;;;;;14.30;7.17;;;4.00;99.90;;;;;;5014768;28;20464;-78
2023/04/27 05:13:25;;;;;;;16.50;8.23;;;4.10;99.90;;;;;;5015841;28;20455;-78
2023/04/27 05:15:52;;;;;;;15.07;7.83;;;4.20;99.90;;;;;;5014588;28;20534;-78
2023/04/27 05:18:19;;;;;;;15.30;7.80;;;4.30;99.90;;;;;;5015431;28;20450;-78
2023/04/27 05:20:46;;;;;;;11.40;6.80;;;4.40;99.90;;;;;;5014550;28;20480;-78
2023/04/27 05:23:13;;;;;;;13.87;7.67;;;4.40;99.90;;;;;;5015070;28;20467;-77
2023/04/27 05:25:41;;;;;;;13.93;8.10;;;4.50;99.90;;;;;;5014496;28;20843;-78
2023/04/27 05:28:08;;;;;;;12.80;6.60;;;4.50;99.90;;;;;;5014740;28;20460;-78
2023/04/27 05:30:35;;;;;;;14.03;6.93;;;4.60;99.90;;;;;;5014372;28;20462;-77
2023/04/27 05:33:03;;;;;;;16.83;7.03;;;4.70;99.90;;;;;;5014935;28;20460;-77
2023/04/27 05:35:30;;;;;;;13.57;7.27;;;4.80;99.90;;;;;;5014122;28;20575;-77
2023/04/27 05:37:56;;;;;;;11.07;6.40;;;4.90;99.90;;;;;;5014841;28;20449;-78
2023/04/27 05:40:23;;;;;;;11.90;6.30;;;4.90;99.90;;;;;;5014934;28;20463;-78
2023/04/27 05:42:52;;;;;;;13.27;7.10;;;5.00;94.50;;;;;;5014455;28;20450;-77
2023/04/27 05:45:19;;;;;;;11.93;7.33;;;5.00;89.20;;;;;;5015367;28;21159;-78
2023/04/27 05:47:46;;;;;;;12.00;5.77;;;5.10;51.70;;;;;;5026884;28;20838;-78
2023/04/27 05:50:13;;;;;;;10.87;6.27;;;5.20;41.60;;;;;;5025856;28;20453;-78
2023/04/27 05:52:40;;;;;;;14.00;6.73;;;5.30;37.20;;;;;;5035670;28;20802;-78
2023/04/27 05:55:07;;;;;;;9.37;5.40;;;5.40;1.00;;;;;;5021165;28;20572;-78
2023/04/27 05:57:34;;;;;;;9.07;5.73;;;5.40;1.00;;;;;;5014198;28;20463;-78
2023/04/27 06:00:07;;;;;;;11.30;5.67;;;5.50;1.00;;;;;;5013529;28;20452;-78
2023/04/27 06:02:34;;;;;;;9.60;6.17;;;5.60;1.00;;;;;;5009305;28;20551;-78
2023/04/27 06:05:01;;;;;;;7.83;5.20;;;5.70;1.00;;;;;;5010305;28;20453;-79
2023/04/27 06:07:27;;;;;;;7.00;4.47;;;5.80;1.00;;;;;;5008377;28;20457;-78
2023/04/27 06:09:54;;;;;;;10.17;5.20;;;5.90;1.00;;;;;;4983812;28;20453;-79
2023/04/27 06:12:21;;;;;;;11.43;5.70;;;5.90;1.00;;;;;;5014205;28;20567;-79
2023/04/27 06:14:48;;;;;;;12.37;4.93;;;6.00;1.00;;;;;;5013450;28;20456;-80
2023/04/27 06:17:16;;;;;;;11.47;5.00;;;6.10;1.00;;;;;;5015587;28;20473;-78
2023/04/27 06:19:43;;;;;;;9.53;5.60;;;6.20;99.90;;;;;;5013868;28;20543;-79
2023/04/27 06:22:11;;;;;;;15.27;5.07;;;6.20;1.00;;;;;;5013386;28;20466;-78
2023/04/27 06:24:38;;;;;;;8.63;4.47;;;6.30;1.00;;;;;;5013579;28;20462;-78
2023/04/27 06:27:04;;;;;;;8.13;5.33;;;6.40;99.90;;;;;;5022968;28;20562;-78
2023/04/27 06:29:31;;;;;;;12.50;3.90;;;6.40;99.90;;;;;;5023415;28;20447;-79
2023/04/27 06:31:58;;;;;;;15.20;4.57;;;6.50;99.90;;;;;;5016547;28;20446;-79
2023/04/27 06:34:26;;;;;;;8.43;4.50;;;6.60;1.00;;;;;;5017778;28;20524;-79
2023/04/27 06:36:53;;;;;;;8.97;4.10;;;6.60;1.00;;;;;;5015900;28;20958;-79
2023/04/27 06:39:20;;;;;;;5.83;4.00;;;6.70;99.90;;;;;;5015901;28;20460;-80
2023/04/27 06:41:47;;;;;;;12.40;3.97;;;6.70;99.90;;;;;;5015190;28;20461;-79
2023/04/27 06:44:13;;;;;;;9.40;4.10;;;6.70;99.90;;;;;;5022434;28;20457;-79
2023/04/27 06:46:40;;;;;;;8.17;3.30;;;6.80;1.00;;;;;;5012472;28;20473;-79
2023/04/27 06:49:07;;;;;;;7.20;4.97;;;6.80;99.90;;;;;;5015779;28;20453;-79
2023/04/27 06:51:35;;;;;;;9.63;4.33;;;6.90;99.90;;;;;;5012459;28;20488;-78
2023/04/27 06:54:03;;;;;;;6.10;3.40;;;7.00;1.00;;;;;;5014807;28;20464;-78
2023/04/27 06:56:29;;;;;;;4.93;2.23;;;7.10;99.90;;;;;;5012854;28;20910;-79
2023/04/27 06:58:56;;;;;;;6.10;2.90;;;7.20;99.90;;;;;;5011204;28;20454;-79
2023/04/27 07:01:23;;;;;;;3.60;2.90;;;7.20;99.90;;;;;;5015165;28;20459;-79
2023/04/27 07:03:51;;;;;;;7.37;4.50;;;7.30;1.00;;;;;;5015589;28;20464;-77
2023/04/27 07:06:17;;;;;;;4.40;2.27;;;7.30;10.00;;;;;;5012014;28;21046;-79
2023/04/27 07:08:46;;;;;;;6.10;2.80;;;7.40;1.00;;;;;;5011897;28;20454;-78
2023/04/27 07:11:13;;;;;;;8.60;2.80;;;7.50;1.00;;;;;;5011974;28;20987;-79
2023/04/27 07:13:40;;;;;;;2.90;2.10;;;7.60;1.00;;;;;;5011857;28;20476;-79
2023/04/27 07:16:07;;;;;;;6.73;2.27;;;7.70;1.00;;;;;;5011307;28;21272;-79
2023/04/27 07:18:34;;;;;;;5.00;2.30;;;7.70;1.00;;;;;;5012380;28;20494;-79
2023/04/27 07:21:01;;;;;;;6.37;2.53;;;7.80;1.00;;;;;;5011557;28;20455;-79
2023/04/27 07:23:28;;;;;;;3.70;1.80;;;7.80;1.00;;;;;;5011109;28;20455;-79
2023/04/27 07:25:56;;;;;;;3.33;2.10;;;8.00;1.00;;;;;;5016633;28;20468;-78
2023/04/27 07:28:23;;;;;;;6.40;2.90;;;8.10;1.00;;;;;;5013100;28;21030;-79
2023/04/27 07:30:50;;;;;;;6.33;2.50;;;8.40;1.00;;;;;;5018200;28;20467;-79
2023/04/27 07:33:17;;;;;;;4.30;2.50;;;8.60;1.00;;;;;;5013278;28;20471;-79
2023/04/27 07:35:44;;;;;;;7.03;2.97;;;8.90;1.00;;;;;;5015304;28;20498;-79
2023/04/27 07:38:11;;;;;;;6.40;3.20;;;9.10;1.00;;;;;;5014191;28;20482;-79
2023/04/27 07:40:38;;;;;;;5.13;2.47;;;9.30;1.00;;;;;;5011390;28;20467;-80
2023/04/27 07:43:06;;;;;;;8.40;2.47;;;9.30;1.00;;;;;;5010941;28;20462;-79
2023/04/27 07:45:36;;;;;;;4.80;2.47;;;9.40;1.00;;;;;;5013007;28;20562;-79
2023/04/27 07:48:03;;;;;;;5.73;2.40;;;9.50;1.00;;;;;;5015725;28;20464;-79
2023/04/27 07:50:31;;;;;;;5.47;2.73;;;9.60;1.00;;;;;;5009796;28;20474;-78
2023/04/27 07:52:58;;;;;;;7.57;3.10;;;9.80;1.00;;;;;;5012571;28;20461;-79
2023/04/27 07:55:25;;;;;;;5.23;2.70;;;9.80;1.00;;;;;;5016153;28;20491;-80
2023/04/27 07:57:53;;;;;;;12.63;3.10;;;9.90;1.00;;;;;;5015853;28;20457;-80
2023/04/27 08:00:24;;;;;;;6.30;2.80;;;9.90;1.00;;;;;;5022285;28;20457;-78
2023/04/27 08:02:52;;;;;;;4.60;3.63;;;10.20;1.00;;;;;;5026354;28;20459;-78
2023/04/27 08:05:19;;;;;;;5.63;2.50;;;9.90;1.00;;;;;;5026711;28;20526;-78
2023/04/27 08:07:45;;;;;;;3.20;2.10;;;10.00;1.00;;;;;;5016412;28;20460;-79
2023/04/27 08:10:13;;;;;;;6.13;2.20;;;10.10;1.00;;;;;;5024022;28;20503;-79
2023/04/27 08:12:40;;;;;;;5.27;2.80;;;10.30;1.00;;;;;;5019211;28;20524;-79
2023/04/27 08:15:08;;;;;;;4.20;2.80;;;10.50;1.00;;;;;;5018428;28;20524;-79
2023/04/27 08:17:37;;;;;;;3.13;2.30;;;10.60;1.00;;;;;;5021112;28;20471;-79
2023/04/27 08:20:06;;;;;;;5.10;2.40;;;10.90;1.00;;;;;;5019669;28;20457;-79
2023/04/27 08:22:33;;;;;;;4.73;2.27;;;11.20;1.00;;;;;;5013226;28;20512;-79
2023/04/27 08:25:00;;;;;;;6.30;2.10;;;11.90;1.00;;;;;;5013461;28;20563;-79
2023/04/27 08:27:27;;;;;;;3.37;1.87;;;13.10;99.90;;;;;;5013170;28;20846;-78
2023/04/27 08:29:54;;;;;;;4.10;2.30;;;13.80;99.90;;;;;;5017444;28;20492;-78
2023/04/27 08:32:20;;;;;;;3.00;1.67;;;15.00;99.90;;;;;;5014860;28;20456;-79
2023/04/27 08:34:48;;;;;;;6.33;2.13;;;16.20;99.90;;;;;;5016002;28;20459;-79
2023/04/27 08:37:17;;;;;;;3.20;1.80;;;17.90;99.90;;;;;;4999598;28;20489;-80
2023/04/27 08:39:44;;;;;;;3.90;2.23;;;18.30;99.90;;;;;;5001438;28;20458;-80
2023/04/27 08:42:11;;;;;;;4.83;2.47;;;19.10;99.90;;;;;;5001376;28;20490;-80
2023/04/27 08:44:39;;;;;;;4.67;2.47;;;19.90;99.90;;;;;;5002063;28;20466;-79
2023/04/27 08:47:07;;;;;;;6.87;2.83;;;19.90;99.90;;;;;;5020787;28;20477;-79
2023/04/27 08:49:34;;;;;;;8.73;2.50;;;20.30;99.90;;;;;;5020900;28;20467;-80
2023/04/27 08:52:03;;;;;;;7.13;2.97;;;21.50;99.90;;;;;;5020112;28;20456;-79
2023/04/27 08:54:29;;;;;;;4.33;1.90;;;22.20;99.90;;;;;;5019016;28;20453;-79
2023/04/27 08:56:56;;;;;;;4.37;2.00;;;23.00;99.90;;;;;;5019672;28;20536;-80
2023/04/27 08:59:23;;;;;;;4.60;1.70;;;23.50;99.90;;;;;;5021752;28;20483;-80
2023/04/27 09:01:50;;;;;;;3.23;1.83;;;24.40;99.90;;;;;;5021133;28;20467;-79
2023/04/27 09:04:18;;;;;;;3.90;2.07;;;24.10;99.90;;;;;;5021942;28;20454;-79
2023/04/27 09:06:45;;;;;;;3.00;1.90;;;23.70;99.90;;;;;;5022502;28;20489;-80
2023/04/27 09:09:22;;;;;;;10.03;2.77;;;23.30;99.90;;;;;;5022490;28;20453;-80
2023/04/27 09:11:50;;;;;;;6.97;4.90;;;22.90;99.90;;;;;;5023232;28;20453;-79
2023/04/27 09:14:18;;;;;;;3.33;2.30;;;23.10;99.90;;;;;;5023291;28;20458;-79
2023/04/27 09:16:45;;;;;;;3.13;1.73;;;22.30;99.90;;;;;;5023822;28;20999;-79
2023/04/27 09:19:12;;;;;;;3.10;1.77;;;22.70;99.90;;;;;;5016956;28;20541;-81
2023/04/27 09:21:39;;;;;;;5.43;2.10;;;22.40;99.90;;;;;;5016842;28;20536;-80
2023/04/27 09:24:14;;;;;;;3.40;2.10;;;23.20;99.90;;;;;;5015854;28;20460;-79
2023/04/27 09:26:41;;;;;;;3.37;1.70;;;23.40;99.90;;;;;;5016525;28;20464;-79
2023/04/27 09:29:09;;;;;;;2.60;2.00;;;23.40;99.90;;;;;;5017142;28;20810;-81
2023/04/27 09:31:36;;;;;;;5.73;2.63;;;22.80;99.90;;;;;;5016092;28;20449;-79
2023/04/27 09:34:03;;;;;;;4.30;3.33;;;22.50;99.90;;;;;;5015521;28;20549;-80
2023/04/27 09:36:31;;;;;;;5.43;2.10;;;23.10;99.90;;;;;;5016624;28;20667;-78
2023/04/27 09:38:58;;;;;;;3.93;2.60;;;23.20;99.90;;;;;;5016208;28;20454;-80
2023/04/27 09:41:27;;;;;;;4.53;2.10;;;23.70;99.90;;;;;;5016051;28;20525;-77
2023/04/27 09:43:55;;;;;;;3.60;2.77;;;24.90;99.90;;;;;;5016146;28;20465;-80
2023/04/27 09:46:24;;;;;;;4.40;2.33;;;24.80;99.90;;;;;;5015676;28;21014;-80
2023/04/27 09:48:52;;;;;;;5.70;2.00;;;25.10;99.90;;;;;;5015765;28;20458;-77
2023/04/27 09:51:19;;;;;;;4.20;2.53;;;25.20;99.90;;;;;;5016220;28;20460;-79
2023/04/27 09:53:52;;;;;;;4.20;2.67;;;25.60;99.90;;;;;;5017160;28;20849;-80
2023/04/27 09:56:36;;;;;;;8.27;2.53;;;25.10;99.90;;;;;;5023119;28;20532;-79
2023/04/27 09:59:21;;;;;;;3.90;2.53;;;25.60;99.90;;;;;;5028750;28;20449;-79
2023/04/27 10:01:51;;;;;;;4.13;2.40;;;25.20;99.90;;;;;;5023207;28;20540;-80
2023/04/27 10:04:50;;;;;;;4.13;2.70;;;25.40;99.90;;;;;;5025369;28;20531;-80
2023/04/27 10:07:18;;;;;;;2.90;2.23;;;26.90;99.90;;;;;;5045567;23;21023;-82
2023/04/27 10:09:46;;;;;;;5.57;3.20;;;26.30;99.90;;;;;;5035294;28;21031;-82
2023/04/27 10:12:17;;;;;;;5.13;2.67;;;25.80;99.90;;;;;;5035929;28;20457;-81
2023/04/27 10:14:55;;;;;;;5.50;2.70;;;25.30;99.90;;;;;;5038584;28;20445;-82
2023/04/27 10:17:28;;;;;;;4.53;2.73;;;25.00;99.90;;;;;;5037452;28;20508;-82
2023/04/27 10:19:57;;;;;;;3.70;2.40;;;24.00;99.90;;;;;;5037063;28;20455;-82
2023/04/27 10:22:24;;;;;;;3.20;2.20;;;24.30;99.90;;;;;;5030300;28;20450;-82
2023/04/27 10:24:52;;;;;;;3.00;2.20;;;23.90;99.90;;;;;;5018603;28;20545;-82
2023/04/27 10:27:22;;;;;;;6.93;3.13;;;23.90;99.90;;;;;;5024612;28;21095;-82
2023/04/27 10:29:50;;;;;;;3.90;2.20;;;22.60;99.90;;;;;;5032759;28;20468;-82
2023/04/27 10:32:22;;;;;;;4.43;2.60;;;22.70;99.90;;;;;;5018008;28;20449;-82
2023/04/27 10:34:49;;;;;;;7.40;2.60;;;23.60;99.90;;;;;;5021587;28;20511;-81
2023/04/27 10:37:20;;;;;;;3.83;2.30;;;24.40;99.90;;;;;;5037322;28;20484;-83
2023/04/27 10:39:47;;;;;;;4.67;2.37;;;25.30;99.90;;;;;;5034262;28;20463;-82
2023/04/27 10:42:14;;;;;;;3.90;2.60;;;26.20;99.90;;;;;;5017425;28;21176;-83
2023/04/27 10:44:42;;;;;;;4.63;2.00;;;25.90;99.90;;;;;;5017871;28;20453;-82
2023/04/27 10:47:18;;;;;;;4.33;2.27;;;27.00;99.90;;;;;;5024038;28;20466;-82
2023/04/27 10:49:45;;;;;;;3.70;2.80;;;27.30;99.90;;;;;;5015980;28;20457;-83
2023/04/27 10:52:12;;;;;;;3.33;2.10;;;27.60;99.90;;;;;;5015836;28;20456;-83
2023/04/27 10:54:40;;;;;;;4.30;2.60;;;27.40;99.90;;;;;;5016270;28;20460;-83
2023/04/27 10:57:08;;;;;;;4.13;2.30;;;27.40;99.90;;;;;;5016391;28;20885;-83
2023/04/27 10:59:46;;;;;;;3.30;2.70;;;26.60;99.90;;;;;;5016352;28;20528;-83
2023/04/27 11:02:14;;;;;;;3.43;2.57;;;27.90;99.90;;;;;;4998498;28;20454;-83
2023/04/27 11:04:42;;;;;;;6.23;2.37;;;28.40;99.90;;;;;;4998070;28;20469;-83
2023/04/27 11:07:09;;;;;;;3.57;2.47;;;29.90;99.90;;;;;;5019053;28;20473;-85
2023/04/27 11:09:37;;;;;;;3.03;1.93;;;29.40;99.90;;;;;;5026975;28;20520;-83
2023/04/27 11:12:07;;;;;;;4.77;2.60;;;29.00;99.90;;;;;;5032184;28;20448;-83
2023/04/27 11:14:35;;;;;;;3.37;2.33;;;28.80;99.90;;;;;;5036901;28;20452;-83
2023/04/27 11:17:03;;;;;;;5.40;2.73;;;29.50;99.90;;;;;;5036915;28;20496;-83
2023/04/27 11:19:31;;;;;;;2.80;2.40;;;29.10;99.90;;;;;;5032285;28;20520;-84
2023/04/27 11:22:05;;;;;;;2.80;2.30;;;29.40;99.90;;;;;;5031940;28;20467;-83
2023/04/27 11:24:32;;;;;;;6.77;2.70;;;28.90;99.90;;;;;;5028712;28;20458;-83
2023/04/27 11:26:59;;;;;;;3.70;2.60;;;28.10;99.90;;;;;;5018774;28;20461;-83
2023/04/27 11:29:26;;;;;;;5.43;3.20;;;27.20;99.90;;;;;;5018488;28;20516;-84
2023/04/27 11:31:53;;;;;;;4.00;3.00;;;27.70;99.90;;;;;;5015191;28;20468;-84
2023/04/27 11:34:21;;;;;;;4.30;3.07;;;29.10;99.90;;;;;;5030346;28;20520;-82
2023/04/27 11:37:00;;;;;;;4.10;2.67;;;28.60;99.90;;;;;;5036906;28;20510;-83
2023/04/27 11:39:27;;;;;;;5.33;3.40;;;29.50;99.90;;;;;;5010281;28;20540;-83
2023/04/27 11:41:54;;;;;;;3.53;2.93;;;29.90;99.90;;;;;;5017915;28;20458;-83
2023/04/27 11:44:26;;;;;;;5.23;3.27;;;29.90;99.90;;;;;;5000886;28;20469;-83
2023/04/27 11:46:53;;;;;;;6.90;3.07;;;30.90;99.90;;;;;;5016723;28;20473;-83
2023/04/27 11:49:20;;;;;;;3.10;2.80;;;31.40;99.90;;;;;;5019540;28;20446;-82
2023/04/27 11:51:47;;;;;;;4.63;2.93;;;31.40;99.90;;;;;;5009732;28;20526;-83
2023/04/27 11:54:16;;;;;;;3.07;2.87;;;30.00;99.90;;;;;;5037122;28;20486;-83
2023/04/27 11:56:44;;;;;;;4.33;3.23;;;30.20;99.90;;;;;;5019971;28;20520;-84
2023/04/27 11:59:21;;;;;;;5.13;3.30;;;30.30;99.90;;;;;;5019273;28;20462;-83
2023/04/27 12:01:48;;;;;;;4.77;3.37;;;29.40;99.90;;;;;;5017967;28;20581;-83
2023/04/27 12:04:15;;;;;;;5.40;3.20;;;30.50;99.90;;;;;;5019214;28;20460;-83
2023/04/27 12:06:42;;;;;;;4.63;3.20;;;31.90;99.90;;;;;;5022993;28;20477;-85
2023/04/27 12:09:09;;;;;;;4.97;3.23;;;31.80;99.90;;;;;;5026862;28;20992;-84
2023/04/27 12:11:37;;;;;;;4.60;3.50;;;32.40;99.90;;;;;;5041806;28;20448;-84
2023/04/27 12:14:04;;;;;;;4.50;3.33;;;32.00;99.90;;;;;;5022829;28;20520;-84
2023/04/27 12:16:34;;;;;;;3.70;2.87;;;31.90;99.90;;;;;;5033382;28;20901;-84
2023/04/27 12:19:01;;;;;;;4.50;3.20;;;30.90;99.90;;;;;;5023209;28;21013;-84
2023/04/27 12:21:28;;;;;;;5.67;3.50;;;31.60;99.90;;;;;;5021408;28;20528;-85
2023/04/27 12:23:55;;;;;;;3.47;3.00;;;30.50;99.90;;;;;;5039445;28;20891;-84
2023/04/27 12:26:22;;;;;;;4.77;3.00;;;31.70;99.90;;;;;;5006347;28;21061;-84
2023/04/27 12:28:50;;;;;;;3.10;2.77;;;32.40;99.90;;;;;;5026662;28;20505;-83
2023/04/27 12:31:21;;;;;;;8.17;3.90;;;33.00;99.90;;;;;;5015850;28;20538;-83
2023/04/27 12:33:48;;;;;;;5.70;3.47;;;32.30;99.90;;;;;;5003785;28;21146;-83
2023/04/27 12:36:15;;;;;;;3.67;2.80;;;32.30;99.90;;;;;;5033597;28;20468;-84
2023/04/27 12:38:41;;;;;;;4.13;3.23;;;33.10;99.90;;;;;;5040314;28;20484;-83
2023/04/27 12:41:08;;;;;;;5.10;3.40;;;32.50;99.90;;;;;;5024358;28;20541;-83
2023/04/27 12:43:37;;;;;;;4.17;3.53;;;32.90;99.90;;;;;;5023017;28;20542;-83
2023/04/27 12:46:05;;;;;;;3.30;2.93;;;32.80;99.90;;;;;;5034808;28;20858;-83
2023/04/27 12:48:32;;;;;;;4.90;2.80;;;33.10;99.90;;;;;;5035549;28;20557;-84
2023/04/27 12:50:59;;;;;;;3.80;2.67;;;33.20;99.90;;;;;;5025830;28;20552;-83
2023/04/27 12:53:26;;;;;;;4.50;2.87;;;33.20;99.90;;;;;;5042117;28;20464;-82
2023/04/27 12:55:53;;;;;;;4.20;3.50;;;32.00;99.90;;;;;;5027328;28;20782;-82